sensor_id;sensor_type;location;lat;lon;timestamp;pressure;altitude;pressure_sealevel;temperature;humidity
23574;BME280;11965;53.640;10.050;2023-01-28T00:02:20;102802.47;;;0.90;98.32
23574;BME280;11965;53.640;10.050;2023-01-28T00:04:47;102807.75;;;0.93;99.10
23574;BME280;11965;53.640;10.050;2023-01-28T00:07:15;102815.31;;;0.87;100.00
23574;BME280;11965;53.640;10.050;2023-01-28T00:09:43;102799.63;;;0.91;100.00
23574;BME280;11965;53.640;10.050;2023-01-28T00:12:10;102802.66;;;0.86;100.00
23574;BME280;11965;53.640;10.050;2023-01-28T00:14:37;102811.78;;;0.85;99.45
23574;BME280;11965;53.640;10.050;2023-01-28T00:17:04;102808.59;;;0.77;100.00
23574;BME280;11965;53.640;10.050;2023-01-28T00:19:31;102816.88;;;0.76;100.00
23574;BME280;11965;53.640;10.050;2023-01-28T00:21:58;102817.66;;;0.78;100.00
23574;BME280;11965;53.640;10.050;2023-01-28T00:24:26;102814.31;;;0.73;100.00
23574;BME280;11965;53.640;10.050;2023-01-28T00:26:53;102812.13;;;0.79;100.00
23574;BME280;11965;53.640;10.050;2023-01-28T00:29:20;102816.53;;;0.82;100.00
23574;BME280;11965;53.640;10.050;2023-01-28T00:31:47;102820.06;;;0.84;100.00
23574;BME280;11965;53.640;10.050;2023-01-28T00:34:13;102804.41;;;0.87;99.27
23574;BME280;11965;53.640;10.050;2023-01-28T00:36:40;102812.34;;;0.92;99.30
23574;BME280;11965;53.640;10.050;2023-01-28T00:39:13;102801.16;;;0.97;99.45
23574;BME280;11965;53.640;10.050;2023-01-28T00:41:42;102815.94;;;0.93;97.89
23574;BME280;11965;53.640;10.050;2023-01-28T00:44:09;102809.50;;;0.94;96.77
23574;BME280;11965;53.640;10.050;2023-01-28T00:46:36;102807.94;;;0.90;96.15
23574;BME280;11965;53.640;10.050;2023-01-28T00:49:02;102808.28;;;0.83;98.02
23574;BME280;11965;53.640;10.050;2023-01-28T00:51:29;102806.59;;;0.81;98.88
23574;BME280;11965;53.640;10.050;2023-01-28T00:53:56;102806.59;;;0.81;100.00
23574;BME280;11965;53.640;10.050;2023-01-28T00:56:24;102808.09;;;0.86;100.00
23574;BME280;11965;53.640;10.050;2023-01-28T00:58:52;102799.09;;;0.84;100.00
23574;BME280;11965;53.640;10.050;2023-01-28T01:01:22;102798.94;;;0.87;100.00
23574;BME280;11965;53.640;10.050;2023-01-28T01:03:49;102798.06;;;0.87;100.00
23574;BME280;11965;53.640;10.050;2023-01-28T01:06:23;102799.97;;;0.85;100.00
23574;BME280;11965;53.640;10.050;2023-01-28T01:08:50;102807.63;;;0.78;100.00
23574;BME280;11965;53.640;10.050;2023-01-28T01:11:17;102809.63;;;0.75;100.00
23574;BME280;11965;53.640;10.050;2023-01-28T01:13:49;102805.97;;;0.76;100.00
23574;BME280;11965;53.640;10.050;2023-01-28T01:16:18;102813.09;;;0.78;100.00
23574;BME280;11965;53.640;10.050;2023-01-28T01:18:47;102811.94;;;0.82;100.00
23574;BME280;11965;53.640;10.050;2023-01-28T01:21:19;102813.16;;;0.77;100.00
23574;BME280;11965;53.640;10.050;2023-01-28T01:23:47;102814.31;;;0.73;100.00
23574;BME280;11965;53.640;10.050;2023-01-28T01:26:14;102811.31;;;0.77;100.00
23574;BME280;11965;53.640;10.050;2023-01-28T01:28:42;102810.03;;;0.84;100.00
23574;BME280;11965;53.640;10.050;2023-01-28T01:31:11;102791.91;;;0.83;100.00
23574;BME280;11965;53.640;10.050;2023-01-28T01:33:41;102805.22;;;0.72;100.00
23574;BME280;11965;53.640;10.050;2023-01-28T01:36:10;102798.88;;;0.72;100.00
23574;BME280;11965;53.640;10.050;2023-01-28T01:38:38;102801.59;;;0.72;100.00
23574;BME280;11965;53.640;10.050;2023-01-28T01:41:06;102796.38;;;0.67;100.00
23574;BME280;11965;53.640;10.050;2023-01-28T01:43:47;102797.31;;;0.68;100.00
23574;BME280;11965;53.640;10.050;2023-01-28T01:46:18;102790.94;;;0.67;100.00
23574;BME280;11965;53.640;10.050;2023-01-28T01:48:48;102799.06;;;0.69;100.00
23574;BME280;11965;53.640;10.050;2023-01-28T01:51:20;102802.03;;;0.64;100.00
23574;BME280;11965;53.640;10.050;2023-01-28T01:53:53;102803.22;;;0.58;100.00
23574;BME280;11965;53.640;10.050;2023-01-28T01:56:27;102799.38;;;0.62;100.00
23574;BME280;11965;53.640;10.050;2023-01-28T01:58:57;102796.91;;;0.58;100.00
23574;BME280;11965;53.640;10.050;2023-01-28T02:01:28;102801.31;;;0.60;100.00
23574;BME280;11965;53.640;10.050;2023-01-28T02:04:03;102806.59;;;0.63;100.00
23574;BME280;11965;53.640;10.050;2023-01-28T02:06:33;102801.25;;;0.62;100.00
23574;BME280;11965;53.640;10.050;2023-01-28T02:09:01;102803.16;;;0.60;100.00
23574;BME280;11965;53.640;10.050;2023-01-28T02:11:31;102799.47;;;0.61;100.00
23574;BME280;11965;53.640;10.050;2023-01-28T02:14:02;102801.16;;;0.63;100.00
23574;BME280;11965;53.640;10.050;2023-01-28T02:16:32;102795.03;;;0.58;100.00
23574;BME280;11965;53.640;10.050;2023-01-28T02:19:01;102803.22;;;0.58;100.00
23574;BME280;11965;53.640;10.050;2023-01-28T02:21:56;102800.44;;;0.60;100.00
23574;BME280;11965;53.640;10.050;2023-01-28T02:24:58;102801.06;;;0.65;100.00
23574;BME280;11965;53.640;10.050;2023-01-28T02:27:36;102792.88;;;0.65;100.00
23574;BME280;11965;53.640;10.050;2023-01-28T02:30:13;102795.91;;;0.59;100.00
23574;BME280;11965;53.640;10.050;2023-01-28T02:32:47;102796.19;;;0.54;100.00
23574;BME280;11965;53.640;10.050;2023-01-28T02:35:26;102783.91;;;0.46;100.00
23574;BME280;11965;53.640;10.050;2023-01-28T02:37:59;102788.06;;;0.53;100.00
23574;BME280;11965;53.640;10.050;2023-01-28T02:40:32;102784.38;;;0.54;100.00
23574;BME280;11965;53.640;10.050;2023-01-28T02:43:29;102790.72;;;0.54;100.00
23574;BME280;11965;53.640;10.050;2023-01-28T02:45:58;102793.63;;;0.51;100.00
23574;BME280;11965;53.640;10.050;2023-01-28T02:48:43;102798.44;;;0.46;100.00
23574;BME280;11965;53.640;10.050;2023-01-28T02:51:22;102794.09;;;0.42;100.00
23574;BME280;11965;53.640;10.050;2023-01-28T02:54:02;102795.06;;;0.41;100.00
23574;BME280;11965;53.640;10.050;2023-01-28T02:56:37;102796.75;;;0.43;100.00
23574;BME280;11965;53.640;10.050;2023-01-28T02:59:11;102794.41;;;0.53;100.00
23574;BME280;11965;53.640;10.050;2023-01-28T03:02:10;102798.28;;;0.49;100.00
23574;BME280;11965;53.640;10.050;2023-01-28T03:04:45;102793.63;;;0.51;100.00
23574;BME280;11965;53.640;10.050;2023-01-28T03:07:16;102794.34;;;0.55;100.00
23574;BME280;11965;53.640;10.050;2023-01-28T03:09:47;102795.28;;;0.54;100.00
23574;BME280;11965;53.640;10.050;2023-01-28T03:12:21;102790.63;;;0.56;100.00
23574;BME280;11965;53.640;10.050;2023-01-28T03:15:12;102784.47;;;0.52;100.00
23574;BME280;11965;53.640;10.050;2023-01-28T03:18:03;102780.88;;;0.52;100.00
23574;BME280;11965;53.640;10.050;2023-01-28T03:20:54;102773.41;;;0.38;100.00
23574;BME280;11965;53.640;10.050;2023-01-28T03:23:47;102776.38;;;0.33;100.00
23574;BME280;11965;53.640;10.050;2023-01-28T03:26:43;102776.78;;;0.26;100.00
23574;BME280;11965;53.640;10.050;2023-01-28T03:29:34;102780.22;;;0.29;100.00
23574;BME280;11965;53.640;10.050;2023-01-28T03:32:22;102785.59;;;0.31;100.00
23574;BME280;11965;53.640;10.050;2023-01-28T03:35:11;102787.19;;;0.35;100.00
23574;BME280;11965;53.640;10.050;2023-01-28T03:37:58;102792.25;;;0.42;100.00
23574;BME280;11965;53.640;10.050;2023-01-28T03:40:27;102797.88;;;0.39;100.00
23574;BME280;11965;53.640;10.050;2023-01-28T03:42:54;102798.91;;;0.37;100.00
23574;BME280;11965;53.640;10.050;2023-01-28T03:45:32;102791.59;;;0.37;100.00
23574;BME280;11965;53.640;10.050;2023-01-28T03:48:02;102798.91;;;0.37;100.00
23574;BME280;11965;53.640;10.050;2023-01-28T03:50:32;102797.00;;;0.39;100.00
23574;BME280;11965;53.640;10.050;2023-01-28T03:53:00;102795.25;;;0.38;100.00
23574;BME280;11965;53.640;10.050;2023-01-28T03:55:45;102788.34;;;0.31;100.00
23574;BME280;11965;53.640;10.050;2023-01-28T03:58:14;102790.25;;;0.29;100.00
23574;BME280;11965;53.640;10.050;2023-01-28T04:00:41;102789.44;;;0.27;100.00
23574;BME280;11965;53.640;10.050;2023-01-28T04:03:12;102783.50;;;0.18;100.00
23574;BME280;11965;53.640;10.050;2023-01-28T04:05:56;102795.56;;;0.14;100.00
23574;BME280;11965;53.640;10.050;2023-01-28T04:08:26;102801.22;;;0.10;100.00
23574;BME280;11965;53.640;10.050;2023-01-28T04:11:10;102802.44;;;0.04;100.00
23574;BME280;11965;53.640;10.050;2023-01-28T04:13:42;102796.25;;;0.01;100.00
23574;BME280;11965;53.640;10.050;2023-01-28T04:16:13;102789.34;;;-0.07;100.00
23574;BME280;11965;53.640;10.050;2023-01-28T04:18:41;102783.63;;;-0.19;100.00
23574;BME280;11965;53.640;10.050;2023-01-28T04:21:09;102787.06;;;-0.33;100.00
23574;BME280;11965;53.640;10.050;2023-01-28T04:23:37;102774.50;;;-0.55;100.00
23574;BME280;11965;53.640;10.050;2023-01-28T04:26:05;102785.69;;;-0.61;100.00
23574;BME280;11965;53.640;10.050;2023-01-28T04:28:33;102783.28;;;-0.67;100.00
23574;BME280;11965;53.640;10.050;2023-01-28T04:31:00;102793.91;;;-0.62;100.00
23574;BME280;11965;53.640;10.050;2023-01-28T04:33:45;102794.75;;;-0.60;100.00
23574;BME280;11965;53.640;10.050;2023-01-28T04:36:25;102789.28;;;-0.60;100.00
23574;BME280;11965;53.640;10.050;2023-01-28T04:39:07;102796.81;;;-0.65;100.00
23574;BME280;11965;53.640;10.050;2023-01-28T04:41:36;102791.34;;;-0.65;100.00
23574;BME280;11965;53.640;10.050;2023-01-28T04:44:15;102795.25;;;-0.71;100.00
23574;BME280;11965;53.640;10.050;2023-01-28T04:47:02;102792.75;;;-0.76;100.00
23574;BME280;11965;53.640;10.050;2023-01-28T04:49:40;102792.84;;;-0.77;100.00
23574;BME280;11965;53.640;10.050;2023-01-28T04:52:27;102797.41;;;-0.78;100.00
23574;BME280;11965;53.640;10.050;2023-01-28T04:54:54;102795.19;;;-0.88;100.00
23574;BME280;11965;53.640;10.050;2023-01-28T04:57:21;102797.25;;;-0.94;100.00
23574;BME280;11965;53.640;10.050;2023-01-28T04:59:48;102803.94;;;-1.01;100.00
23574;BME280;11965;53.640;10.050;2023-01-28T05:02:15;102806.66;;;-1.01;100.00
23574;BME280;11965;53.640;10.050;2023-01-28T05:04:44;102802.69;;;-0.94;100.00
23574;BME280;11965;53.640;10.050;2023-01-28T05:07:21;102804.44;;;-0.93;100.00
23574;BME280;11965;53.640;10.050;2023-01-28T05:09:50;102791.03;;;-0.97;100.00
23574;BME280;11965;53.640;10.050;2023-01-28T05:12:16;102789.28;;;-0.98;100.00
23574;BME280;11965;53.640;10.050;2023-01-28T05:14:45;102783.47;;;-1.09;100.00
23574;BME280;11965;53.640;10.050;2023-01-28T05:17:17;102784.69;;;-1.17;100.00
23574;BME280;11965;53.640;10.050;2023-01-28T05:19:44;102779.59;;;-1.24;100.00
23574;BME280;11965;53.640;10.050;2023-01-28T05:22:18;102787.38;;;-1.36;100.00
23574;BME280;11965;53.640;10.050;2023-01-28T05:24:57;102779.84;;;-1.49;100.00
23574;BME280;11965;53.640;10.050;2023-01-28T05:27:23;102770.00;;;-1.52;100.00
23574;BME280;11965;53.640;10.050;2023-01-28T05:29:52;102768.50;;;-1.59;100.00
23574;BME280;11965;53.640;10.050;2023-01-28T05:32:19;102767.97;;;-1.67;100.00
23574;BME280;11965;53.640;10.050;2023-01-28T05:34:46;102769.25;;;-1.76;100.00
23574;BME280;11965;53.640;10.050;2023-01-28T05:37:13;102770.28;;;-1.79;100.00
23574;BME280;11965;53.640;10.050;2023-01-28T05:39:40;102769.53;;;-1.82;100.00
23574;BME280;11965;53.640;10.050;2023-01-28T05:42:09;102768.72;;;-1.84;100.00
23574;BME280;11965;53.640;10.050;2023-01-28T05:44:41;102762.78;;;-1.94;100.00
23574;BME280;11965;53.640;10.050;2023-01-28T05:47:15;102776.78;;;-2.03;100.00
23574;BME280;11965;53.640;10.050;2023-01-28T05:49:58;102773.88;;;-1.98;100.00
23574;BME280;11965;53.640;10.050;2023-01-28T05:52:32;102770.38;;;-2.02;100.00
23574;BME280;11965;53.640;10.050;2023-01-28T05:54:59;102765.09;;;-2.05;100.00
23574;BME280;11965;53.640;10.050;2023-01-28T05:57:28;102763.53;;;-2.11;100.00
23574;BME280;11965;53.640;10.050;2023-01-28T05:59:55;102773.66;;;-2.14;100.00
23574;BME280;11965;53.640;10.050;2023-01-28T06:02:22;102769.47;;;-2.23;100.00
23574;BME280;11965;53.640;10.050;2023-01-28T06:04:52;102763.94;;;-2.20;100.00
23574;BME280;11965;53.640;10.050;2023-01-28T06:07:19;102769.28;;;-2.18;100.00
23574;BME280;11965;53.640;10.050;2023-01-28T06:09:47;102773.78;;;-2.17;100.00
23574;BME280;11965;53.640;10.050;2023-01-28T06:12:16;102772.69;;;-2.13;100.00
23574;BME280;11965;53.640;10.050;2023-01-28T06:14:59;102759.84;;;-2.10;100.00
23574;BME280;11965;53.640;10.050;2023-01-28T06:17:36;102755.38;;;-2.11;100.00
23574;BME280;11965;53.640;10.050;2023-01-28T06:20:13;102760.66;;;-2.08;100.00
23574;BME280;11965;53.640;10.050;2023-01-28T06:22:41;102769.59;;;-2.04;100.00
23574;BME280;11965;53.640;10.050;2023-01-28T06:25:09;102751.50;;;-2.05;100.00
23574;BME280;11965;53.640;10.050;2023-01-28T06:27:36;102745.13;;;-2.04;100.00
23574;BME280;11965;53.640;10.050;2023-01-28T06:30:05;102743.34;;;-2.05;100.00
23574;BME280;11965;53.640;10.050;2023-01-28T06:32:32;102740.72;;;-2.07;100.00
23574;BME280;11965;53.640;10.050;2023-01-28T06:34:59;102740.75;;;-2.08;100.00
23574;BME280;11965;53.640;10.050;2023-01-28T06:37:26;102748.31;;;-2.15;100.00
23574;BME280;11965;53.640;10.050;2023-01-28T06:39:52;102744.69;;;-2.15;100.00
23574;BME280;11965;53.640;10.050;2023-01-28T06:42:21;102746.63;;;-2.17;100.00
23574;BME280;11965;53.640;10.050;2023-01-28T06:44:48;102741.09;;;-2.16;100.00
23574;BME280;11965;53.640;10.050;2023-01-28T06:47:16;102745.00;;;-2.23;100.00
23574;BME280;11965;53.640;10.050;2023-01-28T06:49:44;102758.94;;;-2.31;100.00
23574;BME280;11965;53.640;10.050;2023-01-28T06:52:11;102765.56;;;-2.38;100.00
23574;BME280;11965;53.640;10.050;2023-01-28T06:54:38;102767.47;;;-2.40;100.00
23574;BME280;11965;53.640;10.050;2023-01-28T06:57:05;102776.75;;;-2.46;100.00
23574;BME280;11965;53.640;10.050;2023-01-28T06:59:31;102788.56;;;-2.47;100.00
23574;BME280;11965;53.640;10.050;2023-01-28T07:01:58;102790.59;;;-2.52;100.00
23574;BME280;11965;53.640;10.050;2023-01-28T07:04:27;102799.78;;;-2.56;100.00
23574;BME280;11965;53.640;10.050;2023-01-28T07:06:54;102809.75;;;-2.56;100.00
23574;BME280;11965;53.640;10.050;2023-01-28T07:09:21;102826.31;;;-2.62;100.00
23574;BME280;11965;53.640;10.050;2023-01-28T07:11:47;102824.47;;;-2.62;100.00
23574;BME280;11965;53.640;10.050;2023-01-28T07:14:14;102829.84;;;-2.60;100.00
23574;BME280;11965;53.640;10.050;2023-01-28T07:16:41;102830.59;;;-2.57;100.00
23574;BME280;11965;53.640;10.050;2023-01-28T07:19:08;102831.63;;;-2.59;100.00
23574;BME280;11965;53.640;10.050;2023-01-28T07:21:36;102840.06;;;-2.67;100.00
23574;BME280;11965;53.640;10.050;2023-01-28T07:24:03;102833.66;;;-2.66;100.00
23574;BME280;11965;53.640;10.050;2023-01-28T07:26:30;102827.94;;;-2.58;100.00
23574;BME280;11965;53.640;10.050;2023-01-28T07:28:57;102834.06;;;-2.53;100.00
23574;BME280;11965;53.640;10.050;2023-01-28T07:31:24;102841.50;;;-2.58;100.00
23574;BME280;11965;53.640;10.050;2023-01-28T07:33:52;102832.25;;;-2.53;100.00
23574;BME280;11965;53.640;10.050;2023-01-28T07:36:19;102835.75;;;-2.49;100.00
23574;BME280;11965;53.640;10.050;2023-01-28T07:38:47;102835.78;;;-2.51;100.00
23574;BME280;11965;53.640;10.050;2023-01-28T07:41:14;102832.25;;;-2.53;100.00
23574;BME280;11965;53.640;10.050;2023-01-28T07:43:41;102844.72;;;-2.47;100.00
23574;BME280;11965;53.640;10.050;2023-01-28T07:46:08;102844.63;;;-2.46;100.00
23574;BME280;11965;53.640;10.050;2023-01-28T07:48:35;102840.22;;;-2.48;100.00
23574;BME280;11965;53.640;10.050;2023-01-28T07:51:02;102842.09;;;-2.50;100.00
23574;BME280;11965;53.640;10.050;2023-01-28T07:53:29;102833.66;;;-2.42;100.00
23574;BME280;11965;53.640;10.050;2023-01-28T07:56:01;102838.19;;;-2.43;100.00
23574;BME280;11965;53.640;10.050;2023-01-28T07:58:29;102844.63;;;-2.46;100.00
23574;BME280;11965;53.640;10.050;2023-01-28T08:00:58;102846.50;;;-2.48;100.00
23574;BME280;11965;53.640;10.050;2023-01-28T08:03:25;102853.66;;;-2.45;100.00
23574;BME280;11965;53.640;10.050;2023-01-28T08:05:54;102851.72;;;-2.41;100.00
23574;BME280;11965;53.640;10.050;2023-01-28T08:08:22;102857.03;;;-2.38;100.00
23574;BME280;11965;53.640;10.050;2023-01-28T08:10:50;102857.66;;;-2.32;100.00
23574;BME280;11965;53.640;10.050;2023-01-28T08:13:18;102857.66;;;-2.32;100.00
23574;BME280;11965;53.640;10.050;2023-01-28T08:15:46;102854.63;;;-2.24;100.00
23574;BME280;11965;53.640;10.050;2023-01-28T08:18:15;102851.88;;;-2.23;100.00
23574;BME280;11965;53.640;10.050;2023-01-28T08:20:42;102855.50;;;-2.24;100.00
23574;BME280;11965;53.640;10.050;2023-01-28T08:23:12;102846.22;;;-2.18;100.00
23574;BME280;11965;53.640;10.050;2023-01-28T08:25:40;102850.50;;;-2.12;100.00
23574;BME280;11965;53.640;10.050;2023-01-28T08:28:08;102856.03;;;-2.14;100.00
23574;BME280;11965;53.640;10.050;2023-01-28T08:30:37;102857.97;;;-1.95;100.00
23574;BME280;11965;53.640;10.050;2023-01-28T08:33:06;102854.50;;;-1.99;100.00
23574;BME280;11965;53.640;10.050;2023-01-28T08:35:33;102852.56;;;-1.95;100.00
23574;BME280;11965;53.640;10.050;2023-01-28T08:38:02;102850.84;;;-1.98;100.00
23574;BME280;11965;53.640;10.050;2023-01-28T08:40:29;102839.72;;;-1.92;100.00
23574;BME280;11965;53.640;10.050;2023-01-28T08:42:56;102865.75;;;-1.86;100.00
23574;BME280;11965;53.640;10.050;2023-01-28T08:45:25;102871.94;;;-1.83;100.00
23574;BME280;11965;53.640;10.050;2023-01-28T08:47:55;102868.50;;;-1.66;100.00
23574;BME280;11965;53.640;10.050;2023-01-28T08:50:24;102870.09;;;-1.40;100.00
23574;BME280;11965;53.640;10.050;2023-01-28T08:52:55;102876.28;;;-1.36;100.00
23574;BME280;11965;53.640;10.050;2023-01-28T08:55:22;102878.81;;;-1.31;100.00
23574;BME280;11965;53.640;10.050;2023-01-28T08:57:49;102881.97;;;-1.22;100.00
23574;BME280;11965;53.640;10.050;2023-01-28T09:00:17;102880.38;;;-1.26;100.00
23574;BME280;11965;53.640;10.050;2023-01-28T09:02:44;102880.28;;;-1.24;100.00
23574;BME280;11965;53.640;10.050;2023-01-28T09:05:12;102883.28;;;-1.10;100.00
23574;BME280;11965;53.640;10.050;2023-01-28T09:07:39;102871.78;;;-0.96;100.00
23574;BME280;11965;53.640;10.050;2023-01-28T09:10:08;102885.56;;;-0.80;100.00
23574;BME280;11965;53.640;10.050;2023-01-28T09:12:36;102891.91;;;-0.61;100.00
23574;BME280;11965;53.640;10.050;2023-01-28T09:15:05;102894.44;;;-0.37;100.00
23574;BME280;11965;53.640;10.050;2023-01-28T09:17:33;102905.41;;;-0.39;98.66
23574;BME280;11965;53.640;10.050;2023-01-28T09:20:01;102897.44;;;-0.25;97.31
23574;BME280;11965;53.640;10.050;2023-01-28T09:22:31;102900.97;;;-0.23;93.33
23574;BME280;11965;53.640;10.050;2023-01-28T09:24:58;102893.09;;;-0.10;95.52
23574;BME280;11965;53.640;10.050;2023-01-28T09:27:25;102904.50;;;-0.02;93.99
23574;BME280;11965;53.640;10.050;2023-01-28T09:29:52;102909.34;;;-0.08;93.57
23574;BME280;11965;53.640;10.050;2023-01-28T09:32:19;102914.44;;;-0.19;92.29
23574;BME280;11965;53.640;10.050;2023-01-28T09:34:46;102912.59;;;-0.19;93.29
23574;BME280;11965;53.640;10.050;2023-01-28T09:37:13;102920.81;;;0.00;91.67
23574;BME280;11965;53.640;10.050;2023-01-28T09:39:41;102917.81;;;0.05;90.28
23574;BME280;11965;53.640;10.050;2023-01-28T09:42:37;102923.72;;;0.14;91.74
23574;BME280;11965;53.640;10.050;2023-01-28T09:45:12;102911.25;;;0.28;90.53
23574;BME280;11965;53.640;10.050;2023-01-28T09:47:44;102901.03;;;0.31;88.67
23574;BME280;11965;53.640;10.050;2023-01-28T09:50:17;102902.84;;;0.67;88.74
23574;BME280;11965;53.640;10.050;2023-01-28T09:52:46;102893.94;;;0.81;85.92
23574;BME280;11965;53.640;10.050;2023-01-28T09:55:20;102888.00;;;0.90;83.34
23574;BME280;11965;53.640;10.050;2023-01-28T09:57:51;102888.00;;;0.90;84.11
23574;BME280;11965;53.640;10.050;2023-01-28T10:00:22;102874.56;;;1.03;81.85
23574;BME280;11965;53.640;10.050;2023-01-28T10:03:20;102876.78;;;1.12;80.55
23574;BME280;11965;53.640;10.050;2023-01-28T10:06:02;102873.44;;;1.40;80.82
23574;BME280;11965;53.640;10.050;2023-01-28T10:08:54;102862.16;;;1.62;77.66
23574;BME280;11965;53.640;10.050;2023-01-28T10:11:42;102868.16;;;1.69;77.69
23574;BME280;11965;53.640;10.050;2023-01-28T10:14:19;102869.41;;;1.95;77.03
23574;BME280;11965;53.640;10.050;2023-01-28T10:16:55;102866.63;;;2.27;75.85
23574;BME280;11965;53.640;10.050;2023-01-28T10:19:28;102867.63;;;2.10;74.94
23574;BME280;11965;53.640;10.050;2023-01-28T10:22:00;102851.06;;;1.97;74.23
23574;BME280;11965;53.640;10.050;2023-01-28T10:24:33;102859.69;;;1.89;75.77
23574;BME280;11965;53.640;10.050;2023-01-28T10:27:09;102854.16;;;1.75;75.32
23574;BME280;11965;53.640;10.050;2023-01-28T10:29:38;102853.88;;;1.64;77.29
23574;BME280;11965;53.640;10.050;2023-01-28T10:32:16;102843.09;;;1.45;75.11
23574;BME280;11965;53.640;10.050;2023-01-28T10:34:47;102843.91;;;1.47;78.39
23574;BME280;11965;53.640;10.050;2023-01-28T10:37:15;102844.31;;;1.39;77.69
23574;BME280;11965;53.640;10.050;2023-01-28T10:39:43;102845.75;;;1.46;81.17
23574;BME280;11965;53.640;10.050;2023-01-28T10:42:23;102829.81;;;1.54;78.32
23574;BME280;11965;53.640;10.050;2023-01-28T10:44:52;102830.69;;;1.55;78.11
23574;BME280;11965;53.640;10.050;2023-01-28T10:47:28;102820.09;;;1.49;78.73
23574;BME280;11965;53.640;10.050;2023-01-28T10:49:58;102813.66;;;1.50;79.80
23574;BME280;11965;53.640;10.050;2023-01-28T10:52:27;102808.13;;;1.67;80.38
23574;BME280;11965;53.640;10.050;2023-01-28T10:55:02;102801.59;;;1.70;78.06
23574;BME280;11965;53.640;10.050;2023-01-28T10:57:33;102806.00;;;1.57;79.52
23574;BME280;11965;53.640;10.050;2023-01-28T11:00:10;102790.28;;;1.28;79.01
23574;BME280;11965;53.640;10.050;2023-01-28T11:02:38;102793.00;;;1.13;80.62
23574;BME280;11965;53.640;10.050;2023-01-28T11:07:33;102797.56;;;1.12;80.36
23574;BME280;11965;53.640;10.050;2023-01-28T11:10:00;102797.34;;;1.32;79.84
23574;BME280;11965;53.640;10.050;2023-01-28T11:12:29;102779.28;;;1.46;80.09
23574;BME280;11965;53.640;10.050;2023-01-28T11:14:58;102779.63;;;1.55;77.97
23574;BME280;11965;53.640;10.050;2023-01-28T11:17:28;102773.97;;;1.74;76.53
23574;BME280;11965;53.640;10.050;2023-01-28T11:19:59;102772.81;;;1.94;77.25
23574;BME280;11965;53.640;10.050;2023-01-28T11:22:33;102761.91;;;2.09;76.70
23574;BME280;11965;53.640;10.050;2023-01-28T11:25:06;102763.56;;;2.41;74.99
23574;BME280;11965;53.640;10.050;2023-01-28T11:27:39;102747.94;;;2.58;73.44
23574;BME280;11965;53.640;10.050;2023-01-28T11:30:21;102752.38;;;2.75;73.77
23574;BME280;11965;53.640;10.050;2023-01-28T11:32:54;102737.97;;;3.00;74.22
23574;BME280;11965;53.640;10.050;2023-01-28T11:35:27;102745.69;;;3.07;70.37
23574;BME280;11965;53.640;10.050;2023-01-28T11:37:55;102726.91;;;2.87;70.96
23574;BME280;11965;53.640;10.050;2023-01-28T11:40:23;102737.09;;;2.71;74.43
23574;BME280;11965;53.640;10.050;2023-01-28T11:42:52;102751.13;;;2.36;72.47
23574;BME280;11965;53.640;10.050;2023-01-28T11:45:31;102743.16;;;2.17;75.67
23574;BME280;11965;53.640;10.050;2023-01-28T11:48:17;102723.22;;;2.15;77.03
23574;BME280;11965;53.640;10.050;2023-01-28T11:50:53;102730.56;;;2.14;75.97
23574;BME280;11965;53.640;10.050;2023-01-28T11:53:47;102732.03;;;2.20;76.91
23574;BME280;11965;53.640;10.050;2023-01-28T11:56:38;102744.19;;;2.00;77.83
23574;BME280;11965;53.640;10.050;2023-01-28T12:02:46;102739.84;;;2.12;77.62
23574;BME280;11965;53.640;10.050;2023-01-28T12:05:28;102730.56;;;2.14;76.39
23574;BME280;11965;53.640;10.050;2023-01-28T12:08:08;102735.28;;;2.27;75.13
23574;BME280;11965;53.640;10.050;2023-01-28T12:10:51;102736.44;;;2.22;78.59
23574;BME280;11965;53.640;10.050;2023-01-28T12:13:32;102733.75;;;2.51;75.78
23574;BME280;11965;53.640;10.050;2023-01-28T12:16:17;102730.16;;;2.51;75.15
23574;BME280;11965;53.640;10.050;2023-01-28T12:22:15;102723.97;;;2.47;76.78
23574;BME280;11965;53.640;10.050;2023-01-28T12:25:02;102712.78;;;2.66;74.88
23574;BME280;11965;53.640;10.050;2023-01-28T12:27:46;102711.09;;;2.63;74.72
23574;BME280;11965;53.640;10.050;2023-01-28T12:30:27;102712.94;;;2.63;74.62
23574;BME280;11965;53.640;10.050;2023-01-28T12:33:13;102708.13;;;2.95;73.46
23574;BME280;11965;53.640;10.050;2023-01-28T12:35:58;102704.06;;;3.29;73.27
23574;BME280;11965;53.640;10.050;2023-01-28T12:38:43;102699.94;;;3.64;70.51
23574;BME280;11965;53.640;10.050;2023-01-28T12:41:17;102699.38;;;3.59;70.29
23574;BME280;11965;53.640;10.050;2023-01-28T12:43:54;102697.94;;;3.53;69.42
23574;BME280;11965;53.640;10.050;2023-01-28T12:46:36;102687.41;;;3.60;70.17
23574;BME280;11965;53.640;10.050;2023-01-28T12:49:10;102677.88;;;3.65;70.81
23574;BME280;11965;53.640;10.050;2023-01-28T12:51:50;102673.81;;;3.58;71.47
23574;BME280;11965;53.640;10.050;2023-01-28T12:54:25;102667.56;;;3.29;72.54
23574;BME280;11965;53.640;10.050;2023-01-28T12:56:55;102675.13;;;3.52;72.11
23574;BME280;11965;53.640;10.050;2023-01-28T12:59:28;102659.13;;;3.59;70.74
23574;BME280;11965;53.640;10.050;2023-01-28T13:02:05;102662.22;;;3.67;70.02
23574;BME280;11965;53.640;10.050;2023-01-28T13:04:45;102669.06;;;3.20;70.61
23574;BME280;11965;53.640;10.050;2023-01-28T13:07:21;102666.88;;;2.98;72.27
23574;BME280;11965;53.640;10.050;2023-01-28T13:09:57;102661.72;;;2.65;76.97
23574;BME280;11965;53.640;10.050;2023-01-28T13:12:28;102660.06;;;2.48;75.07
23574;BME280;11965;53.640;10.050;2023-01-28T13:14:59;102664.53;;;2.35;76.33